sensor_id;sensor_type;location;lat;lon;timestamp;pressure;altitude;pressure_sealevel;temperature;humidity
84651;BME280;74879;52.402;16.904;2024-02-21T00:05:10;101071.0;;;20.1;58.23
84651;BME280;74879;52.402;16.904;2024-02-21T00:20:10;101062.0;;;20.12;58.17
84651;BME280;74879;52.402;16.904;2024-02-21T00:35:10;101049.0;;;20.1;58.18
84651;BME280;74879;52.402;16.904;2024-02-21T00:50:10;101032.0;;;20.1;58.17
84651;BME280;74879;52.402;16.904;2024-02-21T01:05:10;101009.0;;;20.11;58.09
84651;BME280;74879;52.402;16.904;2024-02-21T01:20:11;100980.0;;;20.11;58.08
84651;BME280;74879;52.402;16.904;2024-02-21T01:35:11;100972.0;;;20.1;58.05
84651;BME280;74879;52.402;16.904;2024-02-21T01:50:11;100969.0;;;20.12;58.04
84651;BME280;74879;52.402;16.904;2024-02-21T02:05:11;100967.0;;;20.12;57.98
84651;BME280;74879;52.402;16.904;2024-02-21T02:20:10;100954.0;;;20.15;57.96
84651;BME280;74879;52.402;16.904;2024-02-21T02:35:11;100931.0;;;20.15;57.95
84651;BME280;74879;52.402;16.904;2024-02-21T02:50:11;100921.0;;;20.16;57.92
84651;BME280;74879;52.402;16.904;2024-02-21T03:05:11;100903.0;;;20.14;57.89
84651;BME280;74879;52.402;16.904;2024-02-21T03:20:11;100892.0;;;20.14;57.88
84651;BME280;74879;52.402;16.904;2024-02-21T03:35:11;100884.0;;;20.12;57.88
84651;BME280;74879;52.402;16.904;2024-02-21T03:50:11;100867.0;;;20.13;57.91
84651;BME280;74879;52.402;16.904;2024-02-21T04:05:10;100852.0;;;20.16;57.78
84651;BME280;74879;52.402;16.904;2024-02-21T04:20:10;100834.0;;;20.14;57.8
84651;BME280;74879;52.402;16.904;2024-02-21T04:35:10;100822.0;;;20.13;57.82
84651;BME280;74879;52.402;16.904;2024-02-21T04:50:10;100805.0;;;20.12;57.83
84651;BME280;74879;52.402;16.904;2024-02-21T05:05:11;100789.0;;;20.15;57.77
84651;BME280;74879;52.402;16.904;2024-02-21T05:20:10;100784.0;;;20.12;57.75
84651;BME280;74879;52.402;16.904;2024-02-21T05:35:10;100766.0;;;20.12;57.8
84651;BME280;74879;52.402;16.904;2024-02-21T05:50:10;100757.0;;;20.14;57.78
84651;BME280;74879;52.402;16.904;2024-02-21T06:05:10;100758.0;;;20.1;57.75
84651;BME280;74879;52.402;16.904;2024-02-21T06:20:10;100748.0;;;20.13;57.72
84651;BME280;74879;52.402;16.904;2024-02-21T06:35:10;100738.0;;;20.15;57.71
84651;BME280;74879;52.402;16.904;2024-02-21T06:50:10;100726.0;;;20.12;57.68
84651;BME280;74879;52.402;16.904;2024-02-21T07:05:10;100715.0;;;20.11;57.67
84651;BME280;74879;52.402;16.904;2024-02-21T07:20:10;100700.0;;;20.13;57.66
84651;BME280;74879;52.402;16.904;2024-02-21T07:35:10;100688.0;;;20.11;57.67
84651;BME280;74879;52.402;16.904;2024-02-21T07:50:10;100682.0;;;20.12;57.6
84651;BME280;74879;52.402;16.904;2024-02-21T08:05:10;100680.0;;;20.13;57.64
84651;BME280;74879;52.402;16.904;2024-02-21T08:20:10;100689.0;;;20.13;57.64
84651;BME280;74879;52.402;16.904;2024-02-21T08:35:10;100685.0;;;20.13;57.61
84651;BME280;74879;52.402;16.904;2024-02-21T08:50:10;100674.0;;;20.18;57.62
84651;BME280;74879;52.402;16.904;2024-02-21T09:05:10;100662.0;;;20.14;57.63
84651;BME280;74879;52.402;16.904;2024-02-21T09:20:10;100642.0;;;20.15;57.62
84651;BME280;74879;52.402;16.904;2024-02-21T09:35:10;100651.0;;;20.19;57.61
84651;BME280;74879;52.402;16.904;2024-02-21T09:50:10;100636.0;;;20.16;57.61
84651;BME280;74879;52.402;16.904;2024-02-21T10:05:10;100631.0;;;20.16;57.56
84651;BME280;74879;52.402;16.904;2024-02-21T10:20:10;100635.0;;;20.17;57.59
84651;BME280;74879;52.402;16.904;2024-02-21T10:35:10;100626.0;;;20.16;57.57
84651;BME280;74879;52.402;16.904;2024-02-21T10:50:10;100592.0;;;20.18;57.53
84651;BME280;74879;52.402;16.904;2024-02-21T11:05:10;100550.0;;;20.19;57.55
84651;BME280;74879;52.402;16.904;2024-02-21T11:20:10;100539.0;;;20.18;57.56
84651;BME280;74879;52.402;16.904;2024-02-21T11:35:10;100510.0;;;20.19;57.58
84651;BME280;74879;52.402;16.904;2024-02-21T11:50:10;100499.0;;;20.19;57.57
84651;BME280;76788;52.402;16.904;2024-02-21T12:05:10;100498.0;;;20.17;57.58
84651;BME280;76788;52.402;16.904;2024-02-21T12:20:10;100488.0;;;20.15;57.55
84651;BME280;76788;52.402;16.904;2024-02-21T12:35:10;100474.0;;;20.15;57.6
84651;BME280;76788;52.402;16.904;2024-02-21T12:50:10;100447.0;;;20.11;57.56
84651;BME280;76788;52.402;16.904;2024-02-21T13:05:10;100440.0;;;20.1;57.59
84651;BME280;76788;52.402;16.904;2024-02-21T13:20:11;100433.0;;;20.1;57.56
84651;BME280;76788;52.402;16.904;2024-02-21T13:35:11;100421.0;;;20.08;57.54
84651;BME280;76788;52.402;16.904;2024-02-21T13:50:10;100405.0;;;20.05;57.57
84651;BME280;76788;52.402;16.904;2024-02-21T14:05:11;100399.0;;;20.04;57.51
84651;BME280;76788;52.402;16.904;2024-02-21T14:20:11;100403.0;;;20.06;57.54
84651;BME280;76788;52.402;16.904;2024-02-21T14:35:10;100395.0;;;20.04;57.54
84651;BME280;76788;52.402;16.904;2024-02-21T14:50:11;100372.0;;;20.03;57.54
84651;BME280;76788;52.402;16.904;2024-02-21T15:05:11;100367.0;;;20.01;57.53
84651;BME280;76788;52.402;16.904;2024-02-21T15:20:11;100343.0;;;19.94;57.56
84651;BME280;76788;52.402;16.904;2024-02-21T15:35:11;100341.0;;;19.95;57.55
84651;BME280;76788;52.402;16.904;2024-02-21T15:50:10;100339.0;;;19.92;57.54
84651;BME280;76788;52.402;16.904;2024-02-21T16:05:10;100327.0;;;19.9;57.55
84651;BME280;76788;52.402;16.904;2024-02-21T16:20:10;100319.0;;;19.92;57.54
84651;BME280;76788;52.402;16.904;2024-02-21T16:35:10;100314.0;;;19.9;57.51
84651;BME280;76788;52.402;16.904;2024-02-21T16:50:10;100307.0;;;19.9;57.52
84651;BME280;76788;52.402;16.904;2024-02-21T17:05:10;100301.0;;;19.92;57.54
84651;BME280;76788;52.402;16.904;2024-02-21T17:20:10;100290.0;;;19.91;57.52
84651;BME280;76788;52.402;16.904;2024-02-21T17:35:10;100275.0;;;19.93;57.49
84651;BME280;76788;52.402;16.904;2024-02-21T17:50:10;100254.0;;;19.94;57.5
84651;BME280;76788;52.402;16.904;2024-02-21T18:05:10;100221.0;;;19.93;57.46
84651;BME280;76788;52.402;16.904;2024-02-21T18:20:10;100211.0;;;19.92;57.42
84651;BME280;76788;52.402;16.904;2024-02-21T18:35:10;100219.0;;;19.95;57.43
84651;BME280;76788;52.402;16.904;2024-02-21T18:50:10;100209.0;;;19.92;57.41
84651;BME280;76788;52.402;16.904;2024-02-21T19:05:10;100192.0;;;19.96;57.43
84651;BME280;76788;52.402;16.904;2024-02-21T19:20:10;100185.0;;;19.98;57.41
84651;BME280;76788;52.402;16.904;2024-02-21T19:35:10;100170.0;;;19.95;57.42
84651;BME280;76788;52.402;16.904;2024-02-21T19:50:10;100162.0;;;19.99;57.42
84651;BME280;76788;52.402;16.904;2024-02-21T20:05:10;100128.0;;;20.01;57.35
84651;BME280;76788;52.402;16.904;2024-02-21T20:20:10;100114.0;;;19.99;57.35
84651;BME280;76788;52.402;16.904;2024-02-21T20:35:10;100077.0;;;20.02;57.35
84651;BME280;76788;52.402;16.904;2024-02-21T20:50:10;100043.0;;;20.05;57.3
84651;BME280;76788;52.402;16.904;2024-02-21T21:05:10;100022.0;;;20.04;57.28
84651;BME280;76788;52.402;16.904;2024-02-21T21:20:10;100013.0;;;20.04;57.3
84651;BME280;76788;52.402;16.904;2024-02-21T21:35:10;99991.0;;;20.07;57.25
84651;BME280;76788;52.402;16.904;2024-02-21T21:50:10;99966.0;;;20.07;57.22
84651;BME280;76788;52.402;16.904;2024-02-21T22:05:10;99943.0;;;20.07;57.18
84651;BME280;76788;52.402;16.904;2024-02-21T22:20:10;99920.0;;;20.11;57.17
84651;BME280;76788;52.402;16.904;2024-02-21T22:35:10;99906.0;;;20.08;57.16
84651;BME280;76788;52.402;16.904;2024-02-21T22:50:10;99892.0;;;20.07;57.15
84651;BME280;76788;52.402;16.904;2024-02-21T23:05:10;99878.0;;;20.08;57.15
84651;BME280;76788;52.402;16.904;2024-02-21T23:20:10;99860.0;;;20.05;57.1
84651;BME280;76788;52.402;16.904;2024-02-21T23:35:10;99824.0;;;20.04;57.09
84651;BME280;76788;52.402;16.904;2024-02-21T23:50:10;99798.0;;;20.05;57.05
